sensor_id;sensor_type;location;lat;lon;timestamp;pressure;altitude;pressure_sealevel;temperature;humidity
12594;BME280;6362;50.208;9.182;2023-10-19T00:00:32;98145.03;;;9.24;100.00
12594;BME280;6362;50.208;9.182;2023-10-19T00:02:59;98137.19;;;9.25;100.00
12594;BME280;6362;50.208;9.182;2023-10-19T00:05:31;98131.09;;;9.28;100.00
12594;BME280;6362;50.208;9.182;2023-10-19T00:07:58;98134.59;;;9.25;100.00
12594;BME280;6362;50.208;9.182;2023-10-19T00:10:25;98125.97;;;9.25;100.00
12594;BME280;6362;50.208;9.182;2023-10-19T00:12:54;98136.41;;;9.23;100.00
12594;BME280;6362;50.208;9.182;2023-10-19T00:15:26;98126.88;;;9.24;100.00
12594;BME280;6362;50.208;9.182;2023-10-19T00:17:57;98132.13;;;9.22;100.00
12594;BME280;6362;50.208;9.182;2023-10-19T00:20:24;98120.00;;;9.23;100.00
12594;BME280;6362;50.208;9.182;2023-10-19T00:23:00;98104.31;;;9.26;100.00
12594;BME280;6362;50.208;9.182;2023-10-19T00:25:30;98108.78;;;9.22;100.00
12594;BME280;6362;50.208;9.182;2023-10-19T00:27:56;98112.22;;;9.23;100.00
12594;BME280;6362;50.208;9.182;2023-10-19T00:30:25;98110.34;;;9.26;100.00
12594;BME280;6362;50.208;9.182;2023-10-19T00:32:56;98109.56;;;9.24;100.00
12594;BME280;6362;50.208;9.182;2023-10-19T00:35:21;98112.81;;;9.31;100.00
12594;BME280;6362;50.208;9.182;2023-10-19T00:37:56;98108.97;;;9.43;100.00
12594;BME280;6362;50.208;9.182;2023-10-19T00:40:41;98106.22;;;9.47;100.00
12594;BME280;6362;50.208;9.182;2023-10-19T00:43:12;98113.09;;;9.50;100.00
12594;BME280;6362;50.208;9.182;2023-10-19T00:45:38;98112.31;;;9.46;100.00
12594;BME280;6362;50.208;9.182;2023-10-19T00:48:07;98097.03;;;9.39;100.00
12594;BME280;6362;50.208;9.182;2023-10-19T00:50:33;98100.47;;;9.38;100.00
12594;BME280;6362;50.208;9.182;2023-10-19T00:53:02;98101.88;;;9.49;100.00
12594;BME280;6362;50.208;9.182;2023-10-19T00:55:32;98100.41;;;9.67;100.00
12594;BME280;6362;50.208;9.182;2023-10-19T00:58:00;98104.56;;;9.71;100.00
12594;BME280;6362;50.208;9.182;2023-10-19T01:00:35;98101.25;;;9.68;100.00
12594;BME280;6362;50.208;9.182;2023-10-19T01:03:10;98103.84;;;9.68;100.00
12594;BME280;6362;50.208;9.182;2023-10-19T01:05:36;98095.84;;;9.74;100.00
12594;BME280;6362;50.208;9.182;2023-10-19T01:08:03;98107.28;;;9.68;100.00
12594;BME280;6362;50.208;9.182;2023-10-19T01:10:39;98096.19;;;9.63;100.00
12594;BME280;6362;50.208;9.182;2023-10-19T01:13:05;98098.22;;;9.55;100.00
12594;BME280;6362;50.208;9.182;2023-10-19T01:15:32;98100.75;;;9.57;100.00
12594;BME280;6362;50.208;9.182;2023-10-19T01:18:02;98086.97;;;9.55;100.00
12594;BME280;6362;50.208;9.182;2023-10-19T01:20:31;98091.38;;;9.52;100.00
12594;BME280;6362;50.208;9.182;2023-10-19T01:22:57;98087.13;;;9.50;100.00
12594;BME280;6362;50.208;9.182;2023-10-19T01:28:36;98084.78;;;9.42;100.00
12594;BME280;6362;50.208;9.182;2023-10-19T01:31:13;98080.44;;;9.43;100.00
12594;BME280;6362;50.208;9.182;2023-10-19T01:33:43;98085.53;;;9.46;100.00
12594;BME280;6362;50.208;9.182;2023-10-19T01:36:10;98080.50;;;9.41;100.00
12594;BME280;6362;50.208;9.182;2023-10-19T01:38:36;98078.69;;;9.43;100.00
12594;BME280;6362;50.208;9.182;2023-10-19T01:41:03;98077.00;;;9.42;100.00
12594;BME280;6362;50.208;9.182;2023-10-19T01:43:48;98076.78;;;9.48;100.00
12594;BME280;6362;50.208;9.182;2023-10-19T01:46:15;98073.25;;;9.51;100.00
12594;BME280;6362;50.208;9.182;2023-10-19T01:48:53;98078.44;;;9.51;100.00
12594;BME280;6362;50.208;9.182;2023-10-19T01:51:23;98061.13;;;9.51;100.00
12594;BME280;6362;50.208;9.182;2023-10-19T01:53:49;98074.00;;;9.55;100.00
12594;BME280;6362;50.208;9.182;2023-10-19T01:56:15;98072.00;;;9.63;100.00
12594;BME280;6362;50.208;9.182;2023-10-19T01:58:43;98065.13;;;9.62;100.00
12594;BME280;6362;50.208;9.182;2023-10-19T02:01:11;98057.34;;;9.62;100.00
12594;BME280;6362;50.208;9.182;2023-10-19T02:03:37;98063.25;;;9.65;100.00
12594;BME280;6362;50.208;9.182;2023-10-19T02:06:10;98059.44;;;9.75;100.00
12594;BME280;6362;50.208;9.182;2023-10-19T02:08:45;98060.25;;;9.77;100.00
12594;BME280;6362;50.208;9.182;2023-10-19T02:11:13;98041.19;;;9.78;100.00
12594;BME280;6362;50.208;9.182;2023-10-19T02:13:45;98038.63;;;9.77;100.00
12594;BME280;6362;50.208;9.182;2023-10-19T02:16:17;98044.69;;;9.77;100.00
12594;BME280;6362;50.208;9.182;2023-10-19T02:18:51;98041.03;;;9.83;100.00
12594;BME280;6362;50.208;9.182;2023-10-19T02:21:17;98027.84;;;9.88;100.00
12594;BME280;6362;50.208;9.182;2023-10-19T02:23:52;98032.09;;;9.90;100.00
12594;BME280;6362;50.208;9.182;2023-10-19T02:26:19;98030.19;;;9.95;100.00
12594;BME280;6362;50.208;9.182;2023-10-19T02:28:46;98027.59;;;9.95;100.00
12594;BME280;6362;50.208;9.182;2023-10-19T02:31:12;98031.81;;;9.98;100.00
12594;BME280;6362;50.208;9.182;2023-10-19T02:33:45;98035.94;;;10.03;100.00
12594;BME280;6362;50.208;9.182;2023-10-19T02:36:30;98034.94;;;10.08;100.00
12594;BME280;6362;50.208;9.182;2023-10-19T02:38:57;98020.16;;;10.10;100.00
12594;BME280;6362;50.208;9.182;2023-10-19T02:41:28;98019.06;;;10.15;100.00
12594;BME280;6362;50.208;9.182;2023-10-19T02:43:54;98018.81;;;10.23;100.00
12594;BME280;6362;50.208;9.182;2023-10-19T02:46:32;98013.34;;;10.30;100.00
12594;BME280;6362;50.208;9.182;2023-10-19T02:49:03;98015.94;;;10.30;100.00
12594;BME280;6362;50.208;9.182;2023-10-19T02:51:32;98015.94;;;10.30;100.00
12594;BME280;6362;50.208;9.182;2023-10-19T02:53:58;98016.88;;;10.29;100.00
12594;BME280;6362;50.208;9.182;2023-10-19T02:56:27;98002.97;;;10.30;100.00
12594;BME280;6362;50.208;9.182;2023-10-19T02:58:55;97995.91;;;10.34;100.00
12594;BME280;6362;50.208;9.182;2023-10-19T03:01:27;97992.66;;;10.51;100.00
12594;BME280;6362;50.208;9.182;2023-10-19T03:04:00;97996.41;;;10.66;100.00
12594;BME280;6362;50.208;9.182;2023-10-19T03:06:27;97999.41;;;10.78;100.00
12594;BME280;6362;50.208;9.182;2023-10-19T03:08:56;97986.31;;;10.80;100.00
12594;BME280;6362;50.208;9.182;2023-10-19T03:11:41;97994.97;;;10.80;100.00
12594;BME280;6362;50.208;9.182;2023-10-19T03:14:08;97995.13;;;10.77;100.00
12594;BME280;6362;50.208;9.182;2023-10-19T03:16:36;97999.06;;;10.64;100.00
12594;BME280;6362;50.208;9.182;2023-10-19T03:19:01;97984.38;;;10.63;100.00
12594;BME280;6362;50.208;9.182;2023-10-19T03:21:27;97989.69;;;10.60;100.00
12594;BME280;6362;50.208;9.182;2023-10-19T03:23:56;97978.44;;;10.60;100.00
12594;BME280;6362;50.208;9.182;2023-10-19T03:26:27;97974.97;;;10.61;100.00
12594;BME280;6362;50.208;9.182;2023-10-19T03:28:57;97977.59;;;10.59;100.00
12594;BME280;6362;50.208;9.182;2023-10-19T03:31:40;97975.38;;;10.50;100.00
12594;BME280;6362;50.208;9.182;2023-10-19T03:34:12;97968.47;;;10.49;100.00
12594;BME280;6362;50.208;9.182;2023-10-19T03:36:43;97968.31;;;10.53;100.00
12594;BME280;6362;50.208;9.182;2023-10-19T03:39:10;97967.38;;;10.54;100.00
12594;BME280;6362;50.208;9.182;2023-10-19T03:41:39;97963.00;;;10.56;100.00
12594;BME280;6362;50.208;9.182;2023-10-19T03:44:12;97968.69;;;10.66;100.00
12594;BME280;6362;50.208;9.182;2023-10-19T03:46:44;97964.19;;;10.70;100.00
12594;BME280;6362;50.208;9.182;2023-10-19T03:49:22;97964.25;;;10.68;100.00
12594;BME280;6362;50.208;9.182;2023-10-19T03:51:51;97968.44;;;10.72;100.00
12594;BME280;6362;50.208;9.182;2023-10-19T03:54:45;97963.34;;;10.69;100.00
12594;BME280;6362;50.208;9.182;2023-10-19T03:57:14;97959.13;;;10.67;100.00
12594;BME280;6362;50.208;9.182;2023-10-19T03:59:50;97956.56;;;10.65;100.00
12594;BME280;6362;50.208;9.182;2023-10-19T04:02:23;97953.94;;;10.67;100.00
12594;BME280;6362;50.208;9.182;2023-10-19T04:04:55;97955.88;;;10.62;100.00
12594;BME280;6362;50.208;9.182;2023-10-19T04:07:22;97943.78;;;10.61;100.00
12594;BME280;6362;50.208;9.182;2023-10-19T04:09:55;97953.97;;;10.65;100.00
12594;BME280;6362;50.208;9.182;2023-10-19T04:12:34;97954.03;;;10.64;100.00
12594;BME280;6362;50.208;9.182;2023-10-19T04:15:01;97944.72;;;10.58;100.00
12594;BME280;6362;50.208;9.182;2023-10-19T04:17:36;97942.13;;;10.58;100.00
12594;BME280;6362;50.208;9.182;2023-10-19T04:20:02;97946.41;;;10.59;100.00
12594;BME280;6362;50.208;9.182;2023-10-19T04:22:38;97952.44;;;10.61;100.00
12594;BME280;6362;50.208;9.182;2023-10-19T04:25:04;97948.91;;;10.62;100.00
12594;BME280;6362;50.208;9.182;2023-10-19T04:27:31;97943.66;;;10.64;100.00
12594;BME280;6362;50.208;9.182;2023-10-19T04:30:01;97939.28;;;10.64;100.00
12594;BME280;6362;50.208;9.182;2023-10-19T04:32:26;97934.91;;;10.66;100.00
12594;BME280;6362;50.208;9.182;2023-10-19T04:34:55;97929.47;;;10.71;100.00
12594;BME280;6362;50.208;9.182;2023-10-19T04:37:20;97934.81;;;10.68;100.00
12594;BME280;6362;50.208;9.182;2023-10-19T04:39:49;97933.13;;;10.67;100.00
12594;BME280;6362;50.208;9.182;2023-10-19T04:42:15;97933.00;;;10.70;100.00
12594;BME280;6362;50.208;9.182;2023-10-19T04:44:40;97928.59;;;10.72;100.00
12594;BME280;6362;50.208;9.182;2023-10-19T04:47:06;97931.13;;;10.73;100.00
12594;BME280;6362;50.208;9.182;2023-10-19T04:49:31;97925.94;;;10.73;100.00
12594;BME280;6362;50.208;9.182;2023-10-19T04:51:57;97926.63;;;10.77;100.00
12594;BME280;6362;50.208;9.182;2023-10-19T04:54:22;97927.13;;;10.87;100.00
12594;BME280;6362;50.208;9.182;2023-10-19T04:56:47;97923.81;;;10.83;100.00
12594;BME280;6362;50.208;9.182;2023-10-19T04:59:13;97921.22;;;10.83;100.00
12594;BME280;6362;50.208;9.182;2023-10-19T05:01:39;97907.16;;;10.87;100.00
12594;BME280;6362;50.208;9.182;2023-10-19T05:04:06;97909.38;;;10.96;100.00
12594;BME280;6362;50.208;9.182;2023-10-19T05:06:31;97905.13;;;10.94;100.00
12594;BME280;6362;50.208;9.182;2023-10-19T05:08:57;97898.06;;;10.97;100.00
12594;BME280;6362;50.208;9.182;2023-10-19T05:11:22;97909.31;;;10.98;100.00
12594;BME280;6362;50.208;9.182;2023-10-19T05:13:48;97892.78;;;10.99;100.00
12594;BME280;6362;50.208;9.182;2023-10-19T05:16:13;97888.19;;;11.05;100.00
12594;BME280;6362;50.208;9.182;2023-10-19T05:18:39;97890.00;;;11.03;100.00
12594;BME280;6362;50.208;9.182;2023-10-19T05:21:04;97889.88;;;11.06;100.00
12594;BME280;6362;50.208;9.182;2023-10-19T05:23:30;97882.28;;;11.02;100.00
12594;BME280;6362;50.208;9.182;2023-10-19T05:26:04;97888.47;;;10.99;100.00
12594;BME280;6362;50.208;9.182;2023-10-19T05:28:30;97890.16;;;11.00;100.00
12594;BME280;6362;50.208;9.182;2023-10-19T05:30:56;97902.81;;;11.08;100.00
12594;BME280;6362;50.208;9.182;2023-10-19T05:33:21;97890.84;;;11.04;100.00
12594;BME280;6362;50.208;9.182;2023-10-19T05:35:49;97900.38;;;11.05;100.00
12594;BME280;6362;50.208;9.182;2023-10-19T05:38:15;97910.69;;;11.06;100.00
12594;BME280;6362;50.208;9.182;2023-10-19T05:40:41;97907.28;;;11.04;100.00
12594;BME280;6362;50.208;9.182;2023-10-19T05:43:08;97910.69;;;11.06;100.00
12594;BME280;6362;50.208;9.182;2023-10-19T05:45:34;97919.19;;;11.10;100.00
12594;BME280;6362;50.208;9.182;2023-10-19T05:48:01;97913.88;;;11.13;100.00
12594;BME280;6362;50.208;9.182;2023-10-19T05:50:29;97916.38;;;11.16;100.00
12594;BME280;6362;50.208;9.182;2023-10-19T05:52:55;97914.53;;;11.18;100.00
12594;BME280;6362;50.208;9.182;2023-10-19T05:55:20;97914.28;;;11.24;100.00
12594;BME280;6362;50.208;9.182;2023-10-19T05:57:49;97923.66;;;11.28;100.00
12594;BME280;6362;50.208;9.182;2023-10-19T06:00:15;97926.94;;;11.32;100.00
12594;BME280;6362;50.208;9.182;2023-10-19T06:02:45;97918.94;;;11.36;100.00
12594;BME280;6362;50.208;9.182;2023-10-19T06:05:12;97913.63;;;11.40;100.00
12594;BME280;6362;50.208;9.182;2023-10-19T06:07:41;97905.72;;;11.41;100.00
12594;BME280;6362;50.208;9.182;2023-10-19T06:10:07;97907.22;;;11.47;100.00
12594;BME280;6362;50.208;9.182;2023-10-19T06:12:32;97913.09;;;11.52;100.00
12594;BME280;6362;50.208;9.182;2023-10-19T06:14:59;97905.91;;;11.57;100.00
12594;BME280;6362;50.208;9.182;2023-10-19T06:17:28;97910.72;;;11.66;100.00
12594;BME280;6362;50.208;9.182;2023-10-19T06:19:54;97908.72;;;11.71;100.00
12594;BME280;6362;50.208;9.182;2023-10-19T06:22:21;97911.00;;;11.79;100.00
12594;BME280;6362;50.208;9.182;2023-10-19T06:24:46;97902.25;;;11.81;100.00
12594;BME280;6362;50.208;9.182;2023-10-19T06:27:12;97898.47;;;11.88;100.00
12594;BME280;6362;50.208;9.182;2023-10-19T06:29:37;97896.53;;;11.92;100.00
12594;BME280;6362;50.208;9.182;2023-10-19T06:32:04;97896.41;;;11.95;100.00
12594;BME280;6362;50.208;9.182;2023-10-19T06:34:29;97896.34;;;11.97;100.00
12594;BME280;6362;50.208;9.182;2023-10-19T06:36:55;97894.44;;;12.00;100.00
12594;BME280;6362;50.208;9.182;2023-10-19T06:39:20;97899.28;;;12.08;100.00
12594;BME280;6362;50.208;9.182;2023-10-19T06:41:47;97894.00;;;12.09;100.00
12594;BME280;6362;50.208;9.182;2023-10-19T06:44:13;97886.91;;;12.13;100.00
12594;BME280;6362;50.208;9.182;2023-10-19T06:46:39;97889.50;;;12.13;100.00
12594;BME280;6362;50.208;9.182;2023-10-19T06:49:05;97897.19;;;12.16;100.00
12594;BME280;6362;50.208;9.182;2023-10-19T06:51:30;97900.66;;;12.17;100.00
12594;BME280;6362;50.208;9.182;2023-10-19T06:53:57;97901.50;;;12.17;100.00
12594;BME280;6362;50.208;9.182;2023-10-19T06:56:23;97909.16;;;12.20;100.00
12594;BME280;6362;50.208;9.182;2023-10-19T06:58:48;97916.91;;;12.22;100.00
12594;BME280;6362;50.208;9.182;2023-10-19T07:01:14;97917.13;;;12.17;100.00
12594;BME280;6362;50.208;9.182;2023-10-19T07:03:43;97923.19;;;12.18;100.00
12594;BME280;6362;50.208;9.182;2023-10-19T07:06:09;97913.44;;;12.21;100.00
12594;BME280;6362;50.208;9.182;2023-10-19T07:08:39;97913.00;;;12.30;100.00
12594;BME280;6362;50.208;9.182;2023-10-19T07:11:06;97911.59;;;12.42;100.00
12594;BME280;6362;50.208;9.182;2023-10-19T07:13:32;97904.91;;;12.55;100.00
12594;BME280;6362;50.208;9.182;2023-10-19T07:15:58;97911.91;;;12.72;100.00
12594;BME280;6362;50.208;9.182;2023-10-19T07:18:24;97912.06;;;12.86;100.00
12594;BME280;6362;50.208;9.182;2023-10-19T07:20:49;97911.59;;;12.95;100.00
12594;BME280;6362;50.208;9.182;2023-10-19T07:23:15;97907.47;;;13.09;100.00
12594;BME280;6362;50.208;9.182;2023-10-19T07:25:45;97905.13;;;13.22;100.00
12594;BME280;6362;50.208;9.182;2023-10-19T07:28:13;97908.69;;;13.36;100.00
12594;BME280;6362;50.208;9.182;2023-10-19T07:30:40;97906.38;;;13.47;100.00
12594;BME280;6362;50.208;9.182;2023-10-19T07:33:07;97913.50;;;13.61;100.00
12594;BME280;6362;50.208;9.182;2023-10-19T07:35:36;97916.03;;;13.63;100.00
12594;BME280;6362;50.208;9.182;2023-10-19T07:38:05;97911.00;;;13.76;100.00
12594;BME280;6362;50.208;9.182;2023-10-19T07:40:33;97912.06;;;13.89;100.00
12594;BME280;6362;50.208;9.182;2023-10-19T07:42:59;97915.00;;;13.98;100.00
12594;BME280;6362;50.208;9.182;2023-10-19T07:45:24;97913.09;;;14.18;100.00
12594;BME280;6362;50.208;9.182;2023-10-19T07:47:50;97918.00;;;14.40;100.00
12594;BME280;6362;50.208;9.182;2023-10-19T07:50:16;97913.38;;;14.61;100.00
12594;BME280;6362;50.208;9.182;2023-10-19T07:52:45;97902.88;;;14.76;100.00
12594;BME280;6362;50.208;9.182;2023-10-19T07:55:13;97905.19;;;14.97;100.00
12594;BME280;6362;50.208;9.182;2023-10-19T07:57:39;97901.09;;;15.07;100.00
12594;BME280;6362;50.208;9.182;2023-10-19T08:00:08;97900.75;;;15.13;100.00
12594;BME280;6362;50.208;9.182;2023-10-19T08:02:35;97905.63;;;15.19;100.00
12594;BME280;6362;50.208;9.182;2023-10-19T08:05:01;97910.75;;;15.21;100.00
12594;BME280;6362;50.208;9.182;2023-10-19T08:07:28;97905.25;;;15.11;100.00
12594;BME280;6362;50.208;9.182;2023-10-19T08:09:54;97906.16;;;15.10;100.00
12594;BME280;6362;50.208;9.182;2023-10-19T08:12:20;97905.31;;;15.10;100.00
12594;BME280;6362;50.208;9.182;2023-10-19T08:14:48;97899.81;;;15.14;100.00
12594;BME280;6362;50.208;9.182;2023-10-19T08:17:14;97893.84;;;15.26;100.00
12594;BME280;6362;50.208;9.182;2023-10-19T08:19:39;97902.22;;;15.62;100.00
12594;BME280;6362;50.208;9.182;2023-10-19T08:22:05;97898.78;;;15.75;100.00
12594;BME280;6362;50.208;9.182;2023-10-19T08:24:30;97905.56;;;15.94;100.00
12594;BME280;6362;50.208;9.182;2023-10-19T08:27:00;97900.47;;;16.05;100.00
12594;BME280;6362;50.208;9.182;2023-10-19T08:29:26;97892.00;;;16.28;100.00
12594;BME280;6362;50.208;9.182;2023-10-19T08:31:51;97900.19;;;16.51;99.35
12594;BME280;6362;50.208;9.182;2023-10-19T08:34:16;97891.19;;;16.82;97.78
12594;BME280;6362;50.208;9.182;2023-10-19T08:36:42;97894.53;;;17.24;94.52
12594;BME280;6362;50.208;9.182;2023-10-19T08:39:09;97882.44;;;17.21;94.10
12594;BME280;6362;50.208;9.182;2023-10-19T08:41:37;97878.34;;;17.42;92.75
12594;BME280;6362;50.208;9.182;2023-10-19T08:44:04;97893.19;;;18.07;89.32
12594;BME280;6362;50.208;9.182;2023-10-19T08:46:37;97889.28;;;18.73;89.45
12594;BME280;6362;50.208;9.182;2023-10-19T08:49:05;97889.34;;;18.85;85.05
12594;BME280;6362;50.208;9.182;2023-10-19T08:51:36;97879.81;;;18.95;84.11
12594;BME280;6362;50.208;9.182;2023-10-19T08:54:07;97884.47;;;18.67;85.71
12594;BME280;6362;50.208;9.182;2023-10-19T08:56:36;97888.06;;;18.54;83.07
12594;BME280;6362;50.208;9.182;2023-10-19T08:59:01;97886.91;;;18.34;84.12
12594;BME280;6362;50.208;9.182;2023-10-19T09:01:28;97882.72;;;18.18;84.77
12594;BME280;6362;50.208;9.182;2023-10-19T09:03:57;97893.38;;;18.17;83.51
12594;BME280;6362;50.208;9.182;2023-10-19T09:06:23;97895.09;;;17.92;83.93
12594;BME280;6362;50.208;9.182;2023-10-19T09:08:48;97894.03;;;17.69;85.96
12594;BME280;6362;50.208;9.182;2023-10-19T09:11:14;97891.28;;;17.58;87.83
12594;BME280;6362;50.208;9.182;2023-10-19T09:13:50;97886.25;;;17.55;89.16
12594;BME280;6362;50.208;9.182;2023-10-19T09:16:16;97890.69;;;17.80;88.66
12594;BME280;6362;50.208;9.182;2023-10-19T09:18:42;97881.09;;;18.05;90.17
12594;BME280;6362;50.208;9.182;2023-10-19T09:21:08;97881.34;;;18.26;93.47
12594;BME280;6362;50.208;9.182;2023-10-19T09:23:37;97868.03;;;18.64;89.50
12594;BME280;6362;50.208;9.182;2023-10-19T09:26:03;97858.38;;;19.46;86.79
12594;BME280;6362;50.208;9.182;2023-10-19T09:28:31;97847.63;;;19.94;77.34
12594;BME280;6362;50.208;9.182;2023-10-19T09:31:01;97853.22;;;20.23;71.78
12594;BME280;6362;50.208;9.182;2023-10-19T09:33:27;97844.84;;;20.18;73.86
12594;BME280;6362;50.208;9.182;2023-10-19T09:35:53;97843.69;;;19.88;73.11
12594;BME280;6362;50.208;9.182;2023-10-19T09:38:20;97844.75;;;19.63;74.91
12594;BME280;6362;50.208;9.182;2023-10-19T09:40:51;97848.53;;;19.37;76.15
12594;BME280;6362;50.208;9.182;2023-10-19T09:43:29;97849.75;;;19.44;75.20
12594;BME280;6362;50.208;9.182;2023-10-19T09:45:57;97843.56;;;19.67;74.72
12594;BME280;6362;50.208;9.182;2023-10-19T09:48:25;97828.16;;;20.17;72.90
12594;BME280;6362;50.208;9.182;2023-10-19T09:50:54;97821.84;;;20.52;73.95
12594;BME280;6362;50.208;9.182;2023-10-19T09:53:27;97830.66;;;20.73;75.59
12594;BME280;6362;50.208;9.182;2023-10-19T09:55:57;97834.09;;;20.53;73.88
12594;BME280;6362;50.208;9.182;2023-10-19T09:58:35;97822.41;;;20.12;74.82
12594;BME280;6362;50.208;9.182;2023-10-19T10:01:03;97823.78;;;19.84;72.65
12594;BME280;6362;50.208;9.182;2023-10-19T10:03:46;97831.19;;;19.57;75.55
12594;BME280;6362;50.208;9.182;2023-10-19T10:06:17;97821.59;;;19.56;74.13
12594;BME280;6362;50.208;9.182;2023-10-19T10:08:46;97836.91;;;19.39;79.07
12594;BME280;6362;50.208;9.182;2023-10-19T10:13:42;97817.97;;;19.23;78.05
12594;BME280;6362;50.208;9.182;2023-10-19T10:16:08;97818.94;;;19.22;81.89
12594;BME280;6362;50.208;9.182;2023-10-19T10:18:34;97814.50;;;19.22;82.70
12594;BME280;6362;50.208;9.182;2023-10-19T10:23:46;97808.75;;;19.40;80.18
12594;BME280;6362;50.208;9.182;2023-10-19T10:26:18;97805.91;;;19.65;78.32
12594;BME280;6362;50.208;9.182;2023-10-19T10:28:48;97804.22;;;19.64;78.16
12594;BME280;6362;50.208;9.182;2023-10-19T10:31:21;97808.50;;;19.54;78.85
12594;BME280;6362;50.208;9.182;2023-10-19T10:33:51;97807.56;;;19.55;80.19
12594;BME280;6362;50.208;9.182;2023-10-19T10:36:19;97801.94;;;19.60;75.88
12594;BME280;6362;50.208;9.182;2023-10-19T10:38:47;97798.38;;;19.61;75.92
12594;BME280;6362;50.208;9.182;2023-10-19T10:41:19;97794.78;;;19.62;74.61
12594;BME280;6362;50.208;9.182;2023-10-19T10:43:53;97800.84;;;19.51;76.19
12594;BME280;6362;50.208;9.182;2023-10-19T10:46:20;97800.72;;;19.30;77.76
12594;BME280;6362;50.208;9.182;2023-10-19T10:48:47;97801.69;;;19.29;77.11
12594;BME280;6362;50.208;9.182;2023-10-19T10:51:21;97809.25;;;19.45;78.37
12594;BME280;6362;50.208;9.182;2023-10-19T10:53:48;97797.50;;;19.94;75.46
12594;BME280;6362;50.208;9.182;2023-10-19T10:56:15;97797.84;;;20.55;74.11
12594;BME280;6362;50.208;9.182;2023-10-19T10:58:40;97798.13;;;20.94;71.50
12594;BME280;6362;50.208;9.182;2023-10-19T11:01:06;97793.53;;;20.96;69.37
12594;BME280;6362;50.208;9.182;2023-10-19T11:03:32;97788.38;;;20.73;69.96
12594;BME280;6362;50.208;9.182;2023-10-19T11:06:07;97797.38;;;20.50;68.83
12594;BME280;6362;50.208;9.182;2023-10-19T11:08:37;97792.97;;;20.28;70.24
12594;BME280;6362;50.208;9.182;2023-10-19T11:11:08;97797.50;;;20.37;71.48
12594;BME280;6362;50.208;9.182;2023-10-19T11:13:37;97786.31;;;20.45;69.15
12594;BME280;6362;50.208;9.182;2023-10-19T11:16:04;97779.63;;;20.94;71.10
12594;BME280;6362;50.208;9.182;2023-10-19T11:18:38;97778.84;;;21.03;69.20
12594;BME280;6362;50.208;9.182;2023-10-19T11:21:15;97783.75;;;21.07;66.57
12594;BME280;6362;50.208;9.182;2023-10-19T11:23:42;97781.31;;;20.95;68.36
12594;BME280;6362;50.208;9.182;2023-10-19T11:26:10;97788.00;;;20.99;66.97
12594;BME280;6362;50.208;9.182;2023-10-19T11:28:36;97784.47;;;20.89;67.51
12594;BME280;6362;50.208;9.182;2023-10-19T11:31:12;97787.47;;;20.63;68.07
12594;BME280;6362;50.208;9.182;2023-10-19T11:33:42;97783.00;;;20.31;73.10
12594;BME280;6362;50.208;9.182;2023-10-19T11:36:09;97793.53;;;19.99;73.09
12594;BME280;6362;50.208;9.182;2023-10-19T11:38:39;97787.44;;;19.76;72.97
12594;BME280;6362;50.208;9.182;2023-10-19T11:41:07;97792.94;;;19.51;74.32
12594;BME280;6362;50.208;9.182;2023-10-19T11:43:33;97782.38;;;19.29;75.64
12594;BME280;6362;50.208;9.182;2023-10-19T11:45:59;97783.56;;;19.24;76.89
12594;BME280;6362;50.208;9.182;2023-10-19T11:48:26;97771.00;;;19.28;77.09
12594;BME280;6362;50.208;9.182;2023-10-19T11:50:51;97764.91;;;19.39;76.85
12594;BME280;6362;50.208;9.182;2023-10-19T11:53:17;97762.50;;;19.47;76.39
12594;BME280;6362;50.208;9.182;2023-10-19T11:55:42;97755.56;;;19.35;75.62
12594;BME280;6362;50.208;9.182;2023-10-19T11:58:08;97756.88;;;19.29;76.14
12594;BME280;6362;50.208;9.182;2023-10-19T12:00:37;97752.66;;;19.15;76.84
12594;BME280;6362;50.208;9.182;2023-10-19T12:03:03;97750.25;;;19.01;77.91
12594;BME280;6362;50.208;9.182;2023-10-19T12:05:29;97743.88;;;18.92;78.90
12594;BME280;6362;50.208;9.182;2023-10-19T12:07:55;97740.19;;;18.84;79.70
12594;BME280;6362;50.208;9.182;2023-10-19T12:10:22;97755.63;;;18.77;80.06
12594;BME280;6362;50.208;9.182;2023-10-19T12:12:53;97752.72;;;18.69;81.96
12594;BME280;6362;50.208;9.182;2023-10-19T12:15:19;97753.00;;;18.64;82.46
12594;BME280;6362;50.208;9.182;2023-10-19T12:17:47;97745.81;;;18.55;83.63
12594;BME280;6362;50.208;9.182;2023-10-19T12:20:14;97739.72;;;18.55;84.07
12594;BME280;6362;50.208;9.182;2023-10-19T12:22:39;97740.56;;;18.55;84.48
12594;BME280;6362;50.208;9.182;2023-10-19T12:25:05;97744.03;;;18.56;84.68
12594;BME280;6362;50.208;9.182;2023-10-19T12:27:31;97741.66;;;18.64;82.70
12594;BME280;6362;50.208;9.182;2023-10-19T12:29:56;97730.28;;;18.63;81.99
12594;BME280;6362;50.208;9.182;2023-10-19T12:32:24;97729.31;;;18.64;82.08
12594;BME280;6362;50.208;9.182;2023-10-19T12:34:50;97730.91;;;18.67;83.14
12594;BME280;6362;50.208;9.182;2023-10-19T12:37:19;97725.72;;;18.65;83.22
12594;BME280;6362;50.208;9.182;2023-10-19T12:39:45;97718.66;;;18.55;82.74
12594;BME280;6362;50.208;9.182;2023-10-19T12:42:14;97724.78;;;18.55;84.12
12594;BME280;6362;50.208;9.182;2023-10-19T12:44:40;97718.03;;;18.51;83.51
12594;BME280;6362;50.208;9.182;2023-10-19T12:47:07;97726.75;;;18.40;85.07
12594;BME280;6362;50.208;9.182;2023-10-19T12:49:41;97717.91;;;18.41;84.23
12594;BME280;6362;50.208;9.182;2023-10-19T12:52:08;97724.44;;;18.36;85.78
12594;BME280;6362;50.208;9.182;2023-10-19T12:54:34;97720.50;;;18.30;86.91
12594;BME280;6362;50.208;9.182;2023-10-19T12:57:01;97728.34;;;18.19;87.59
12594;BME280;6362;50.208;9.182;2023-10-19T12:59:29;97726.53;;;18.19;86.75
12594;BME280;6362;50.208;9.182;2023-10-19T13:01:54;97720.56;;;18.17;86.70
12594;BME280;6362;50.208;9.182;2023-10-19T13:04:23;97719.81;;;18.15;87.17
12594;BME280;6362;50.208;9.182;2023-10-19T13:06:50;97727.25;;;18.10;87.61
12594;BME280;6362;50.208;9.182;2023-10-19T13:09:15;97717.75;;;18.08;87.84
12594;BME280;6362;50.208;9.182;2023-10-19T13:11:50;97716.94;;;18.07;87.96
12594;BME280;6362;50.208;9.182;2023-10-19T13:14:18;97707.06;;;17.98;88.53
12594;BME280;6362;50.208;9.182;2023-10-19T13:16:44;97702.75;;;17.97;88.92
12594;BME280;6362;50.208;9.182;2023-10-19T13:19:10;97701.09;;;17.96;88.74